createdAt,value
2022-09-24T00:02:18.366Z,2.90
2022-09-24T00:05:20.568Z,2.90
2022-09-24T00:08:22.682Z,2.00
2022-09-24T00:11:28.848Z,2.38
2022-09-24T00:14:30.960Z,2.60
2022-09-24T00:17:33.101Z,3.00
2022-09-24T00:20:48.283Z,2.67
2022-09-24T00:23:54.794Z,2.45
2022-09-24T00:27:06.611Z,1.80
2022-09-24T00:30:09.139Z,2.38
2022-09-24T00:33:11.913Z,2.42
2022-09-24T00:36:15.038Z,2.50
2022-09-24T00:39:17.382Z,2.58
2022-09-24T00:42:20.865Z,2.83
2022-09-24T00:45:24.356Z,2.10
2022-09-24T00:48:26.466Z,1.95
2022-09-24T00:51:33.259Z,1.90
2022-09-24T00:54:36.113Z,2.40
2022-09-24T00:57:40.014Z,1.95
2022-09-24T01:00:46.092Z,2.33
2022-09-24T01:03:50.828Z,2.40
2022-09-24T01:06:53.568Z,2.08
2022-09-24T01:09:56.253Z,2.17
2022-09-24T01:13:22.253Z,2.10
2022-09-24T01:16:53.196Z,1.83
2022-09-24T01:20:04.452Z,2.45
2022-09-24T01:23:12.604Z,2.13
2022-09-24T01:26:38.577Z,2.47
2022-09-24T01:29:59.997Z,2.25
2022-09-24T01:33:08.978Z,1.98
2022-09-24T01:36:13.101Z,2.28
2022-09-24T01:39:15.368Z,2.20
2022-09-24T01:42:20.280Z,2.40
2022-09-24T01:45:23.096Z,2.00
2022-09-24T01:48:26.438Z,2.25
2022-09-24T01:51:34.942Z,1.77
2022-09-24T01:54:43.134Z,1.40
2022-09-24T01:58:05.030Z,2.30
2022-09-24T02:01:14.169Z,2.33
2022-09-24T02:04:19.703Z,2.20
2022-09-24T02:07:33.689Z,2.28
2022-09-24T02:10:48.316Z,2.00
2022-09-24T02:14:14.599Z,2.03
2022-09-24T02:17:17.688Z,2.03
2022-09-24T02:20:22.721Z,1.95
2022-09-24T02:23:28.447Z,1.92
2022-09-24T02:26:30.661Z,1.70
2022-09-24T02:29:32.820Z,1.92
2022-09-24T02:32:36.934Z,2.30
2022-09-24T02:35:40.887Z,2.20
2022-09-24T02:42:15.916Z,1.83
2022-09-24T02:45:18.068Z,1.83
2022-09-24T02:48:20.199Z,1.70
2022-09-24T02:51:22.494Z,2.20
2022-09-24T02:54:25.326Z,1.73
2022-09-24T02:57:27.493Z,2.00
2022-09-24T03:00:29.591Z,1.67
2022-09-24T03:03:32.501Z,2.13
2022-09-24T03:06:34.761Z,1.88
2022-09-24T03:09:36.910Z,1.92
2022-09-24T03:12:39.258Z,2.10
2022-09-24T03:15:41.376Z,1.85
2022-09-24T03:18:44.361Z,1.70
2022-09-24T03:21:46.644Z,1.85
2022-09-24T03:24:48.783Z,2.22
2022-09-24T03:27:50.921Z,1.40
2022-09-24T03:34:31.041Z,1.80
2022-09-24T03:37:37.189Z,2.50
2022-09-24T03:40:39.518Z,2.08
2022-09-24T03:43:56.569Z,2.10
2022-09-24T03:50:39.467Z,1.70
2022-09-24T03:53:41.883Z,1.80
2022-09-24T03:56:44.124Z,1.70
2022-09-24T03:59:47.449Z,2.10
2022-09-24T04:02:50.222Z,2.30
2022-09-24T04:05:52.543Z,1.60
2022-09-24T04:08:55.757Z,1.80
2022-09-24T04:11:59.205Z,1.98
2022-09-24T04:15:02.682Z,1.80
2022-09-24T04:21:40.561Z,1.77
2022-09-24T04:24:42.606Z,2.00
2022-09-24T04:27:45.270Z,1.48
2022-09-24T04:30:47.455Z,2.08
2022-09-24T04:33:49.603Z,2.05
2022-09-24T04:36:52.257Z,1.92
2022-09-24T04:39:54.390Z,1.60
2022-09-24T04:42:56.837Z,1.83
2022-09-24T04:45:59.551Z,2.35
2022-09-24T04:49:01.824Z,2.00
2022-09-24T04:55:41.816Z,2.20
2022-09-24T04:58:44.845Z,2.08
2022-09-24T05:01:47.392Z,2.13
2022-09-24T05:04:49.595Z,2.08
2022-09-24T05:07:51.994Z,2.15
2022-09-24T05:14:32.186Z,1.80
2022-09-24T05:28:43.128Z,1.95
2022-09-24T05:31:45.647Z,1.67
2022-09-24T05:34:47.942Z,2.50
2022-09-24T05:37:53.404Z,1.60
2022-09-24T05:41:08.649Z,2.08
2022-09-24T05:47:55.322Z,1.60
2022-09-24T05:50:57.576Z,1.83
2022-09-24T06:01:30.500Z,1.63
2022-09-24T06:11:57.181Z,2.00
2022-09-24T06:18:45.023Z,2.10
2022-09-24T06:21:48.216Z,2.35
2022-09-24T06:28:35.620Z,1.90
2022-09-24T06:31:37.899Z,1.80
2022-09-24T06:34:40.110Z,1.92
2022-09-24T06:37:42.234Z,1.80
2022-09-24T06:40:45.934Z,2.20
2022-09-24T06:43:48.139Z,1.75
2022-09-24T06:46:51.204Z,1.95
2022-09-24T06:49:53.398Z,2.25
2022-09-24T06:52:56.474Z,2.10
2022-09-24T06:55:59.846Z,1.90
2022-09-24T06:59:02.145Z,2.38
2022-09-24T07:02:04.391Z,2.63
2022-09-24T07:05:07.933Z,1.80
2022-09-24T07:08:10.199Z,2.20
2022-09-24T07:11:13.876Z,2.35
2022-09-24T07:14:16.103Z,2.17
2022-09-24T07:17:18.324Z,1.98
2022-09-24T07:20:20.820Z,1.90
2022-09-24T07:23:23.732Z,2.15
2022-09-24T07:26:25.924Z,1.80
2022-09-24T07:29:28.226Z,2.53
2022-09-24T07:32:31.016Z,1.65
2022-09-24T07:35:34.495Z,1.50
2022-09-24T07:38:37.321Z,1.80
2022-09-24T07:41:42.532Z,2.00
2022-09-24T07:44:45.617Z,1.73
2022-09-24T07:48:07.705Z,1.77
2022-09-24T07:51:13.297Z,2.03
2022-09-24T07:54:17.422Z,1.90
2022-09-24T07:57:20.328Z,1.50
2022-09-24T08:00:24.408Z,1.80
2022-09-24T08:07:03.376Z,1.52
2022-09-24T08:10:06.404Z,1.85
2022-09-24T08:13:08.935Z,1.55
2022-09-24T08:16:11.357Z,1.30
2022-09-24T08:19:14.373Z,1.55
2022-09-24T08:22:16.639Z,1.55
2022-09-24T08:25:19.002Z,1.63
2022-09-24T08:28:21.179Z,1.40
2022-09-24T08:31:23.562Z,1.63
2022-09-24T08:34:25.789Z,1.38
2022-09-24T08:37:29.300Z,1.67
2022-09-24T08:40:39.076Z,1.70
2022-09-24T08:43:56.571Z,1.70
2022-09-24T08:47:22.017Z,1.23
2022-09-24T08:50:36.372Z,1.63
2022-09-24T08:53:45.337Z,1.30
2022-09-24T08:56:47.632Z,1.50
2022-09-24T08:59:53.387Z,1.48
2022-09-24T09:03:11.814Z,1.58
2022-09-24T09:06:39.937Z,1.58
2022-09-24T09:10:19.077Z,1.58
2022-09-24T09:14:01.581Z,1.50
2022-09-24T09:17:10.159Z,1.63
2022-09-24T09:20:20.043Z,1.17
2022-09-24T09:23:30.282Z,1.17
2022-09-24T09:26:35.119Z,1.50
2022-09-24T09:29:37.502Z,1.23
2022-09-24T09:32:49.137Z,1.52
2022-09-24T09:36:17.281Z,1.23
2022-09-24T09:39:37.940Z,1.30
2022-09-24T09:42:40.668Z,1.20
2022-09-24T09:46:16.094Z,1.15
2022-09-24T09:49:18.503Z,1.20
2022-09-24T09:52:24.922Z,1.30
2022-09-24T09:55:37.459Z,1.67
2022-09-24T10:02:28.389Z,1.42
2022-09-24T10:05:30.891Z,1.30
2022-09-24T10:08:33.153Z,1.40
2022-09-24T10:11:37.626Z,1.52
2022-09-24T10:14:39.852Z,1.60
2022-09-24T10:17:44.335Z,1.20
2022-09-24T10:20:51.145Z,1.40
2022-09-24T10:24:00.363Z,1.40
2022-09-24T10:27:12.102Z,1.00
2022-09-24T10:30:35.372Z,1.10
2022-09-24T10:33:39.754Z,1.30
2022-09-24T10:36:51.734Z,1.30
2022-09-24T10:40:14.001Z,1.20
2022-09-24T10:43:19.304Z,1.20
2022-09-24T10:46:35.662Z,1.50
2022-09-24T10:49:59.711Z,1.50
2022-09-24T10:53:13.577Z,1.40
2022-09-24T10:56:38.206Z,1.60
2022-09-24T10:59:51.682Z,1.52
2022-09-24T11:03:09.394Z,1.65
2022-09-24T11:06:26.677Z,1.45
2022-09-24T11:09:28.820Z,1.35
2022-09-24T11:13:07.541Z,1.40
2022-09-24T11:16:25.938Z,1.75
2022-09-24T11:19:39.759Z,1.50
2022-09-24T11:22:57.470Z,1.25
2022-09-24T11:26:03.670Z,1.15
2022-09-24T11:29:14.821Z,1.30
2022-09-24T11:32:19.833Z,1.17
2022-09-24T11:35:42.289Z,1.30
2022-09-24T11:39:11.521Z,1.50
2022-09-24T11:42:22.290Z,1.50
2022-09-24T11:45:51.343Z,0.85
2022-09-24T11:49:38.342Z,1.27
2022-09-24T11:52:56.054Z,1.10
2022-09-24T11:56:16.014Z,1.20
2022-09-24T11:59:29.966Z,1.38
2022-09-24T12:02:47.968Z,1.30
2022-09-24T12:06:07.241Z,1.30
2022-09-24T12:09:26.548Z,1.60
2022-09-24T12:12:35.071Z,1.33
2022-09-24T12:15:51.752Z,1.17
2022-09-24T12:19:21.470Z,1.73
2022-09-24T12:22:25.677Z,1.30
2022-09-24T12:25:33.126Z,1.60
2022-09-24T12:29:21.263Z,1.73
2022-09-24T12:32:53.730Z,2.17
2022-09-24T12:36:15.097Z,1.50
2022-09-24T12:39:20.241Z,1.92
2022-09-24T12:42:23.981Z,1.52
2022-09-24T12:45:27.280Z,2.22
2022-09-24T12:48:32.461Z,1.65
2022-09-24T12:51:37.850Z,1.23
2022-09-24T12:54:40.077Z,1.70
2022-09-24T12:58:04.217Z,1.20
2022-09-24T13:01:28.828Z,1.70
2022-09-24T13:04:31.119Z,1.40
2022-09-24T13:07:40.039Z,1.45
2022-09-24T13:11:06.024Z,1.35
2022-09-24T13:14:13.956Z,1.52
2022-09-24T13:17:18.532Z,1.70
2022-09-24T13:20:27.163Z,1.85
2022-09-24T13:23:33.855Z,1.40
2022-09-24T13:26:36.126Z,1.35
2022-09-24T13:29:40.280Z,1.38
2022-09-24T13:32:58.835Z,1.45
2022-09-24T13:36:17.543Z,1.35
2022-09-24T13:39:50.710Z,1.40
2022-09-24T13:43:11.960Z,1.40
2022-09-24T13:46:17.838Z,1.15
2022-09-24T13:49:23.138Z,1.70
2022-09-24T13:52:39.741Z,1.55
2022-09-24T13:55:47.875Z,1.08
2022-09-24T13:58:51.540Z,1.20
2022-09-24T14:01:53.944Z,1.55
2022-09-24T14:04:58.845Z,1.27
2022-09-24T14:08:08.863Z,1.13
2022-09-24T14:11:18.212Z,1.25
2022-09-24T14:14:23.484Z,1.40
2022-09-24T14:17:26.512Z,1.20
2022-09-24T14:20:33.770Z,1.30
2022-09-24T14:24:13.231Z,1.58
2022-09-24T14:27:19.657Z,1.50
2022-09-24T14:30:24.271Z,1.42
2022-09-24T14:33:31.551Z,1.25
2022-09-24T14:36:37.284Z,1.40
2022-09-24T14:39:46.092Z,1.40
2022-09-24T14:42:54.834Z,1.10
2022-09-24T14:46:28.178Z,1.40
2022-09-24T14:49:43.039Z,1.25
2022-09-24T14:52:56.918Z,1.13
2022-09-24T14:55:59.455Z,1.23
2022-09-24T14:59:01.655Z,1.40
2022-09-24T15:02:26.570Z,1.27
2022-09-24T15:05:29.937Z,1.30
2022-09-24T15:08:32.181Z,1.20
2022-09-24T15:11:43.654Z,1.13
2022-09-24T15:15:04.676Z,1.40
2022-09-24T15:18:17.271Z,1.25
2022-09-24T15:21:19.421Z,1.52
2022-09-24T15:24:22.257Z,1.60
2022-09-24T15:27:27.405Z,1.70
2022-09-24T15:30:29.536Z,1.58
2022-09-24T15:33:31.696Z,1.58
2022-09-24T15:36:34.137Z,1.50
2022-09-24T15:39:36.297Z,1.45
2022-09-24T15:42:38.404Z,1.60
2022-09-24T15:45:40.555Z,1.60
2022-09-24T15:48:44.286Z,1.60
2022-09-24T15:51:46.396Z,2.03
2022-09-24T15:54:48.531Z,1.48
2022-09-24T15:57:50.717Z,1.30
2022-09-24T16:00:53.498Z,1.60
2022-09-24T16:03:55.638Z,1.35
2022-09-24T16:06:57.929Z,1.55
2022-09-24T16:10:00.063Z,1.83
2022-09-24T16:13:02.810Z,1.60
2022-09-24T16:16:07.717Z,1.75
2022-09-24T16:19:10.040Z,1.48
2022-09-24T16:22:14.783Z,1.73
2022-09-24T16:25:19.109Z,1.38
2022-09-24T16:28:21.317Z,1.50
2022-09-24T16:31:23.937Z,2.10
2022-09-24T16:34:26.484Z,1.75
2022-09-24T16:37:28.660Z,1.75
2022-09-24T16:40:31.411Z,2.03
2022-09-24T16:43:34.134Z,2.22
2022-09-24T16:46:36.402Z,2.60
2022-09-24T16:49:38.497Z,1.80
2022-09-24T16:52:40.628Z,1.83
2022-09-24T16:55:42.793Z,1.70
2022-09-24T16:58:46.900Z,2.25
2022-09-24T17:01:49.175Z,2.20
2022-09-24T17:04:53.665Z,2.35
2022-09-24T17:07:55.825Z,2.55
2022-09-24T17:11:00.650Z,2.05
2022-09-24T17:14:03.149Z,2.70
2022-09-24T17:17:05.841Z,2.05
2022-09-24T17:20:09.482Z,2.42
2022-09-24T17:23:11.558Z,2.88
2022-09-24T17:26:16.869Z,2.65
2022-09-24T17:29:20.896Z,2.55
2022-09-24T17:32:23.284Z,2.60
2022-09-24T17:35:25.418Z,2.58
2022-09-24T17:38:30.594Z,2.92
2022-09-24T17:41:33.925Z,2.75
2022-09-24T17:44:37.152Z,2.97
2022-09-24T17:47:58.782Z,3.72
2022-09-24T17:51:07.659Z,3.40
2022-09-24T17:54:14.055Z,3.60
2022-09-24T17:57:16.650Z,3.97
2022-09-24T18:00:18.972Z,3.25
2022-09-24T18:03:24.050Z,3.88
2022-09-24T18:06:32.477Z,3.17
2022-09-24T18:09:35.166Z,2.60
2022-09-24T18:12:39.586Z,3.08
2022-09-24T18:15:42.473Z,2.72
2022-09-24T18:18:46.638Z,3.30
2022-09-24T18:21:51.511Z,2.85
2022-09-24T18:24:55.310Z,3.35
2022-09-24T18:28:02.597Z,3.80
2022-09-24T18:31:08.163Z,3.97
2022-09-24T18:34:14.154Z,3.10
2022-09-24T18:37:16.367Z,3.42
2022-09-24T18:40:22.002Z,3.85
2022-09-24T18:43:26.423Z,3.20
2022-09-24T18:46:30.956Z,2.85
2022-09-24T18:49:36.140Z,2.67
2022-09-24T18:52:40.246Z,2.85
2022-09-24T18:55:45.743Z,3.00
2022-09-24T18:58:48.240Z,3.58
2022-09-24T19:01:56.716Z,3.20
2022-09-24T19:05:00.043Z,2.67
2022-09-24T19:08:02.831Z,4.43
2022-09-24T19:11:11.130Z,3.35
2022-09-24T19:14:19.863Z,3.03
2022-09-24T19:17:24.362Z,3.58
2022-09-24T19:20:27.465Z,3.70
2022-09-24T19:23:29.872Z,2.80
2022-09-24T19:26:35.526Z,3.40
2022-09-24T19:29:41.180Z,3.85
2022-09-24T19:32:45.891Z,2.97
2022-09-24T19:36:03.711Z,4.00
2022-09-24T19:39:13.153Z,3.65
2022-09-24T19:42:16.137Z,4.20
2022-09-24T19:45:18.867Z,3.88
2022-09-24T19:48:24.136Z,3.58
2022-09-24T19:51:32.978Z,3.35
2022-09-24T19:54:36.569Z,3.35
2022-09-24T19:57:39.231Z,3.03
2022-09-24T20:00:43.229Z,3.38
2022-09-24T20:03:47.016Z,3.67
2022-09-24T20:06:49.139Z,3.70
2022-09-24T20:09:52.397Z,3.75
2022-09-24T20:12:56.344Z,3.60
2022-09-24T20:16:02.197Z,3.28
2022-09-24T20:19:09.342Z,4.25
2022-09-24T20:22:15.203Z,3.70
2022-09-24T20:25:19.593Z,4.18
2022-09-24T20:28:25.286Z,3.53
2022-09-24T20:31:28.724Z,4.07
2022-09-24T20:34:35.619Z,4.20
2022-09-24T20:37:38.445Z,3.78
2022-09-24T20:40:43.221Z,3.80
2022-09-24T20:43:46.401Z,3.13
2022-09-24T20:46:51.463Z,3.60
2022-09-24T20:49:59.339Z,3.75
2022-09-24T20:53:01.953Z,3.90
2022-09-24T20:56:06.012Z,3.65
2022-09-24T20:59:12.625Z,3.45
2022-09-24T21:02:16.842Z,3.95
2022-09-24T21:05:20.086Z,4.10
2022-09-24T21:08:23.470Z,3.63
2022-09-24T21:11:27.787Z,3.38
2022-09-24T21:14:32.281Z,3.25
2022-09-24T21:17:39.388Z,4.30
2022-09-24T21:20:45.149Z,4.40
2022-09-24T21:23:50.439Z,3.67
2022-09-24T21:26:55.369Z,3.47
2022-09-24T21:30:03.133Z,3.60
2022-09-24T21:33:05.587Z,3.90
2022-09-24T21:36:11.257Z,3.30
2022-09-24T21:39:26.864Z,4.60
2022-09-24T21:42:33.938Z,3.30
2022-09-24T21:45:39.372Z,4.03
2022-09-24T21:48:43.339Z,4.13
2022-09-24T21:51:47.409Z,2.90
2022-09-24T21:54:50.235Z,3.85
2022-09-24T21:57:53.039Z,3.28
2022-09-24T22:00:58.934Z,3.60
2022-09-24T22:04:07.478Z,3.90
2022-09-24T22:07:12.360Z,2.70
2022-09-24T22:10:16.052Z,3.40
2022-09-24T22:13:19.814Z,3.58
2022-09-24T22:16:22.859Z,2.95
2022-09-24T22:19:25.698Z,3.47
2022-09-24T22:22:29.474Z,3.15
2022-09-24T22:25:33.313Z,3.17
2022-09-24T22:28:38.090Z,2.78
2022-09-24T22:31:40.362Z,2.90
2022-09-24T22:35:01.598Z,3.95
2022-09-24T22:38:04.273Z,3.28
2022-09-24T22:41:08.804Z,4.10
2022-09-24T22:44:12.230Z,3.20
2022-09-24T22:47:17.180Z,4.03
2022-09-24T22:50:21.551Z,3.90
2022-09-24T22:53:25.512Z,3.70
2022-09-24T22:56:28.674Z,3.80
2022-09-24T22:59:31.246Z,3.58
2022-09-24T23:02:35.322Z,4.20
2022-09-24T23:05:37.470Z,4.07
2022-09-24T23:08:40.875Z,4.15
2022-09-24T23:11:43.046Z,4.32
2022-09-24T23:14:45.287Z,4.32
2022-09-24T23:17:47.874Z,3.80
2022-09-24T23:20:50.404Z,3.80
2022-09-24T23:23:57.258Z,3.38
2022-09-24T23:26:59.361Z,4.10
2022-09-24T23:30:01.583Z,4.35
2022-09-24T23:33:03.845Z,4.00
2022-09-24T23:36:07.528Z,4.28
2022-09-24T23:39:09.742Z,4.03
2022-09-24T23:42:12.009Z,3.65
2022-09-24T23:45:14.201Z,3.75
2022-09-24T23:48:16.567Z,4.13
2022-09-24T23:51:18.704Z,3.75
2022-09-24T23:54:21.119Z,3.55
2022-09-24T23:57:23.352Z,3.80
